createdAt,value
2022-12-11T00:00:29.239Z,-0.20
2022-12-11T00:02:56.721Z,-0.20
2022-12-11T00:05:24.122Z,-0.20
2022-12-11T00:07:50.961Z,-0.10
2022-12-11T00:10:17.869Z,-0.10
2022-12-11T00:12:44.581Z,-0.10
2022-12-11T00:15:11.957Z,-0.10
2022-12-11T00:17:39.001Z,-0.10
2022-12-11T00:20:06.139Z,-0.20
2022-12-11T00:22:32.847Z,-0.20
2022-12-11T00:24:59.625Z,-0.20
2022-12-11T00:27:26.414Z,-0.20
2022-12-11T00:29:53.178Z,-0.20
2022-12-11T00:32:19.940Z,-0.20
2022-12-11T00:34:46.712Z,-0.20
2022-12-11T00:37:13.534Z,-0.30
2022-12-11T00:39:41.100Z,-0.20
2022-12-11T00:42:08.481Z,-0.20
2022-12-11T00:44:35.386Z,-0.20
2022-12-11T00:47:02.306Z,-0.20
2022-12-11T00:49:29.242Z,-0.20
2022-12-11T00:51:56.082Z,-0.20
2022-12-11T00:54:22.902Z,-0.20
2022-12-11T00:56:50.769Z,-0.20
2022-12-11T00:59:17.494Z,-0.20
2022-12-11T01:01:44.382Z,-0.20
2022-12-11T01:04:11.209Z,-0.20
2022-12-11T01:06:39.056Z,-0.20
2022-12-11T01:09:24.700Z,-0.20
2022-12-11T01:11:52.169Z,-0.20
2022-12-11T01:14:19.076Z,-0.20
2022-12-11T01:16:45.936Z,-0.20
2022-12-11T01:19:13.034Z,-0.20
2022-12-11T01:21:39.821Z,-0.20
2022-12-11T01:24:06.716Z,-0.20
2022-12-11T01:26:33.692Z,-0.10
2022-12-11T01:29:01.097Z,-0.20
2022-12-11T01:31:27.924Z,-0.20
2022-12-11T01:33:55.492Z,-0.10
2022-12-11T01:36:22.636Z,-0.10
2022-12-11T01:38:49.842Z,-0.10
2022-12-11T01:41:17.411Z,-0.10
2022-12-11T01:44:03.095Z,-0.10
2022-12-11T01:46:30.916Z,-0.10
2022-12-11T01:48:59.086Z,-0.10
2022-12-11T01:51:26.705Z,-0.10
2022-12-11T01:53:57.196Z,-0.10
2022-12-11T01:56:24.321Z,-0.10
2022-12-11T01:58:53.970Z,-0.10
2022-12-11T02:01:25.054Z,-0.20
2022-12-11T02:03:53.063Z,-0.20
2022-12-11T02:06:35.073Z,-0.20
2022-12-11T02:09:02.594Z,-0.20
2022-12-11T02:11:38.760Z,-0.20
2022-12-11T02:14:08.816Z,-0.20
2022-12-11T02:16:44.847Z,-0.20
2022-12-11T02:19:11.636Z,-0.20
2022-12-11T02:21:40.184Z,-0.20
2022-12-11T02:24:18.993Z,-0.20
2022-12-11T02:26:52.833Z,-0.20
2022-12-11T02:29:27.075Z,-0.10
2022-12-11T02:31:57.987Z,-0.10
2022-12-11T02:34:34.504Z,-0.10
2022-12-11T02:37:03.985Z,-0.10
2022-12-11T02:39:32.100Z,-0.10
2022-12-11T02:41:59.968Z,-0.10
2022-12-11T02:44:29.663Z,-0.10
2022-12-11T02:46:57.978Z,-0.10
2022-12-11T02:49:26.707Z,-0.10
2022-12-11T02:51:54.708Z,-0.10
2022-12-11T02:54:25.110Z,-0.10
2022-12-11T02:56:54.210Z,-0.20
2022-12-11T02:59:24.210Z,-0.10
2022-12-11T03:01:51.163Z,-0.10
2022-12-11T03:07:41.220Z,-0.20
2022-12-11T03:10:09.662Z,-0.20
2022-12-11T03:12:39.197Z,-0.20
2022-12-11T03:15:08.170Z,-0.20
2022-12-11T03:17:40.932Z,-0.10
2022-12-11T03:20:16.749Z,-0.20
2022-12-11T03:22:57.854Z,-0.10
2022-12-11T03:25:51.082Z,-0.10
2022-12-11T03:28:41.233Z,-0.10
2022-12-11T03:31:09.823Z,-0.10
2022-12-11T03:33:38.883Z,-0.10
2022-12-11T03:36:26.102Z,-0.10
2022-12-11T03:38:54.737Z,-0.10
2022-12-11T03:41:23.298Z,-0.10
2022-12-11T03:43:51.983Z,0.00
2022-12-11T03:46:21.110Z,-0.10
2022-12-11T03:48:48.635Z,-0.10
2022-12-11T03:51:17.219Z,-0.10
2022-12-11T03:53:44.692Z,-0.10
2022-12-11T03:56:12.427Z,-0.10
2022-12-11T03:58:39.191Z,-0.10
2022-12-11T04:01:09.377Z,-0.10
2022-12-11T04:03:36.334Z,-0.10
2022-12-11T04:06:03.160Z,0.00
2022-12-11T04:08:30.015Z,-0.10
2022-12-11T04:11:17.147Z,-0.10
2022-12-11T04:13:43.985Z,-0.10
2022-12-11T04:16:10.849Z,-0.20
2022-12-11T04:18:56.313Z,-0.20
2022-12-11T04:21:41.761Z,-0.20
2022-12-11T04:24:17.797Z,-0.30
2022-12-11T04:26:45.551Z,-0.20
2022-12-11T04:29:12.962Z,-0.20
2022-12-11T04:31:39.813Z,-0.20
2022-12-11T04:34:06.813Z,-0.20
2022-12-11T04:36:33.744Z,-0.20
2022-12-11T04:39:00.483Z,-0.20
2022-12-11T04:41:27.261Z,-0.10
2022-12-11T04:43:54.052Z,-0.10
2022-12-11T04:46:22.065Z,-0.10
2022-12-11T04:48:53.873Z,-0.20
2022-12-11T04:51:23.805Z,-0.20
2022-12-11T04:53:50.608Z,-0.20
2022-12-11T04:56:17.555Z,-0.20
2022-12-11T04:58:44.894Z,-0.10
2022-12-11T05:01:12.730Z,-0.10
2022-12-11T05:03:39.613Z,0.00
2022-12-11T05:06:06.608Z,-0.10
2022-12-11T05:08:34.566Z,-0.10
2022-12-11T05:11:02.667Z,-0.10
2022-12-11T05:13:29.726Z,-0.20
2022-12-11T05:15:56.963Z,-0.20
2022-12-11T05:18:24.152Z,-0.20
2022-12-11T05:20:57.646Z,-0.20
2022-12-11T05:23:24.877Z,-0.20
2022-12-11T05:25:58.976Z,-0.20
2022-12-11T05:28:26.522Z,-0.20
2022-12-11T05:30:57.870Z,-0.10
2022-12-11T05:33:24.921Z,-0.20
2022-12-11T05:35:51.850Z,-0.20
2022-12-11T05:38:18.645Z,-0.20
2022-12-11T05:40:45.429Z,-0.20
2022-12-11T05:43:12.201Z,-0.20
2022-12-11T05:45:39.012Z,-0.20
2022-12-11T05:48:05.922Z,-0.30
2022-12-11T05:50:33.119Z,-0.30
2022-12-11T05:52:59.920Z,-0.20
2022-12-11T05:55:26.672Z,-0.20
2022-12-11T05:57:53.457Z,-0.20
2022-12-11T06:00:21.086Z,-0.20
2022-12-11T06:02:47.932Z,-0.20
2022-12-11T06:05:14.891Z,-0.20
2022-12-11T06:07:41.674Z,-0.20
2022-12-11T06:10:08.649Z,-0.20
2022-12-11T06:12:35.425Z,-0.10
2022-12-11T06:15:02.197Z,-0.20
2022-12-11T06:17:28.961Z,-0.20
2022-12-11T06:19:55.737Z,-0.20
2022-12-11T06:22:22.541Z,-0.20
2022-12-11T06:24:49.337Z,-0.20
2022-12-11T06:27:16.207Z,-0.20
2022-12-11T06:29:43.020Z,-0.20
2022-12-11T06:32:10.421Z,-0.20
2022-12-11T06:34:37.161Z,-0.20
2022-12-11T06:37:04.015Z,-0.30
2022-12-11T06:39:30.880Z,-0.20
2022-12-11T06:41:57.614Z,-0.30
2022-12-11T06:44:25.089Z,-0.30
2022-12-11T06:46:51.920Z,-0.20
2022-12-11T06:49:18.641Z,-0.20
2022-12-11T06:51:45.369Z,-0.20
2022-12-11T06:54:12.178Z,-0.20
2022-12-11T06:56:39.047Z,-0.20
2022-12-11T06:59:07.489Z,-0.20
2022-12-11T07:01:34.568Z,-0.30
2022-12-11T07:04:01.351Z,-0.20
2022-12-11T07:06:28.531Z,-0.20
2022-12-11T07:08:55.431Z,-0.20
2022-12-11T07:11:22.593Z,-0.20
2022-12-11T07:13:49.421Z,-0.20
2022-12-11T07:16:17.666Z,-0.20
2022-12-11T07:18:47.503Z,-0.20
2022-12-11T07:21:14.334Z,-0.20
2022-12-11T07:23:41.533Z,-0.20
2022-12-11T07:26:09.849Z,-0.10
2022-12-11T07:28:36.679Z,-0.10
2022-12-11T07:31:07.040Z,0.00
2022-12-11T07:33:34.300Z,-0.10
2022-12-11T07:36:02.711Z,-0.10
2022-12-11T07:38:29.654Z,-0.10
2022-12-11T07:40:56.418Z,0.00
2022-12-11T07:43:23.226Z,0.00
2022-12-11T07:45:50.172Z,0.00
2022-12-11T07:48:17.075Z,-0.10
2022-12-11T07:50:43.786Z,0.00
2022-12-11T07:53:11.116Z,0.00
2022-12-11T07:55:37.901Z,-0.10
2022-12-11T07:58:04.784Z,0.00
2022-12-11T08:00:31.690Z,-0.10
2022-12-11T08:02:59.048Z,-0.10
2022-12-11T08:05:25.829Z,0.00
2022-12-11T08:07:52.629Z,0.00
2022-12-11T08:10:19.486Z,0.00
2022-12-11T08:12:46.265Z,0.00
2022-12-11T08:15:13.846Z,-0.10
2022-12-11T08:17:40.763Z,-0.10
2022-12-11T08:20:08.496Z,0.00
2022-12-11T08:22:35.494Z,-0.10
2022-12-11T08:25:02.331Z,-0.10
2022-12-11T08:27:29.387Z,-0.10
2022-12-11T08:29:57.211Z,-0.10
2022-12-11T08:32:24.026Z,-0.10
2022-12-11T08:34:51.399Z,-0.10
2022-12-11T08:37:18.198Z,-0.10
2022-12-11T08:39:46.942Z,-0.10
2022-12-11T08:42:13.753Z,0.00
2022-12-11T08:44:41.759Z,0.00
2022-12-11T08:47:09.936Z,0.00
2022-12-11T08:49:36.807Z,0.00
2022-12-11T08:52:04.672Z,0.00
2022-12-11T08:54:31.837Z,0.10
2022-12-11T08:56:58.681Z,0.10
2022-12-11T08:59:25.805Z,0.10
2022-12-11T09:01:52.765Z,0.10
2022-12-11T09:04:19.687Z,0.10
2022-12-11T09:06:46.524Z,0.10
2022-12-11T09:09:13.333Z,0.10
2022-12-11T09:11:40.131Z,0.00
2022-12-11T09:14:08.144Z,0.00
2022-12-11T09:16:37.834Z,0.10
2022-12-11T09:19:04.731Z,0.10
2022-12-11T09:21:31.553Z,0.10
2022-12-11T09:23:59.525Z,0.20
2022-12-11T09:26:26.762Z,0.20
2022-12-11T09:28:54.065Z,0.20
2022-12-11T09:31:23.580Z,0.20
2022-12-11T09:33:51.973Z,0.20
2022-12-11T09:36:19.405Z,0.10
2022-12-11T09:38:46.482Z,0.20
2022-12-11T09:41:22.405Z,0.30
2022-12-11T09:43:54.940Z,0.30
2022-12-11T09:46:24.685Z,0.30
2022-12-11T09:48:53.705Z,0.30
2022-12-11T09:51:23.495Z,0.30
2022-12-11T09:53:51.613Z,0.30
2022-12-11T09:56:36.381Z,0.40
2022-12-11T09:59:18.599Z,0.40
2022-12-11T10:01:51.416Z,0.40
2022-12-11T10:04:18.246Z,0.20
2022-12-11T10:06:51.516Z,0.20
2022-12-11T10:09:18.384Z,0.20
2022-12-11T10:11:59.124Z,0.20
2022-12-11T10:14:44.563Z,0.30
2022-12-11T10:17:13.398Z,0.30
2022-12-11T10:19:41.103Z,0.40
2022-12-11T10:22:14.518Z,0.40
2022-12-11T10:27:33.568Z,0.40
2022-12-11T10:30:12.485Z,0.50
2022-12-11T10:32:51.484Z,0.40
2022-12-11T10:35:39.324Z,0.40
2022-12-11T10:38:23.832Z,0.40
2022-12-11T10:40:53.155Z,0.40
2022-12-11T10:43:20.020Z,0.50
2022-12-11T10:45:50.597Z,0.50
2022-12-11T10:48:17.409Z,0.60
2022-12-11T10:50:45.927Z,0.50
2022-12-11T10:53:20.713Z,0.50
2022-12-11T10:55:48.165Z,0.50
2022-12-11T10:58:22.930Z,0.50
2022-12-11T11:01:08.417Z,0.50
2022-12-11T11:03:36.836Z,0.50
2022-12-11T11:06:04.952Z,0.60
2022-12-11T11:08:44.564Z,0.70
2022-12-11T11:11:20.557Z,0.70
2022-12-11T11:13:47.399Z,0.60
2022-12-11T11:16:16.835Z,0.60
2022-12-11T11:18:49.257Z,0.70
2022-12-11T11:21:16.881Z,0.60
2022-12-11T11:23:47.270Z,0.60
2022-12-11T11:26:17.727Z,0.70
2022-12-11T11:28:48.820Z,0.80
2022-12-11T11:31:16.619Z,0.70
2022-12-11T11:33:56.210Z,0.70
2022-12-11T11:36:24.618Z,0.70
2022-12-11T11:39:07.516Z,0.60
2022-12-11T11:41:37.649Z,0.50
2022-12-11T11:44:07.053Z,0.40
2022-12-11T11:46:36.952Z,0.40
2022-12-11T11:49:06.836Z,0.40
2022-12-11T11:51:55.796Z,0.50
2022-12-11T11:54:22.668Z,0.50
2022-12-11T11:56:52.672Z,0.40
2022-12-11T11:59:23.421Z,0.40
2022-12-11T12:01:51.517Z,0.50
2022-12-11T12:04:18.273Z,0.60
2022-12-11T12:06:51.226Z,0.50
2022-12-11T12:09:36.869Z,0.50
2022-12-11T12:12:25.541Z,0.50
2022-12-11T12:15:03.543Z,0.50
2022-12-11T12:17:42.635Z,0.60
2022-12-11T12:20:09.414Z,0.60
2022-12-11T12:22:44.538Z,0.60
2022-12-11T12:25:30.112Z,0.60
2022-12-11T12:27:57.966Z,0.70
2022-12-11T12:30:24.762Z,0.70
2022-12-11T12:33:00.973Z,0.60
2022-12-11T12:35:37.780Z,0.60
2022-12-11T12:38:14.150Z,0.60
2022-12-11T12:40:41.121Z,0.60
2022-12-11T12:43:14.597Z,0.70
2022-12-11T12:46:04.354Z,0.60
2022-12-11T12:48:33.080Z,0.60
2022-12-11T12:50:59.981Z,0.60
2022-12-11T12:53:32.549Z,0.60
2022-12-11T12:55:59.717Z,0.50
2022-12-11T12:58:28.147Z,0.40
2022-12-11T13:00:55.571Z,0.40
2022-12-11T13:03:23.675Z,0.50
2022-12-11T13:05:59.510Z,0.60
2022-12-11T13:08:31.582Z,0.60
2022-12-11T13:11:03.545Z,0.60
2022-12-11T13:13:54.472Z,0.60
2022-12-11T13:16:24.874Z,0.60
2022-12-11T13:18:53.509Z,0.60
2022-12-11T13:21:22.958Z,0.60
2022-12-11T13:23:50.107Z,0.60
2022-12-11T13:26:27.678Z,0.60
2022-12-11T13:28:54.410Z,0.50
2022-12-11T13:31:22.896Z,0.50
2022-12-11T13:33:50.893Z,0.40
2022-12-11T13:36:22.787Z,0.30
2022-12-11T13:39:00.290Z,0.30
2022-12-11T13:41:27.881Z,0.20
2022-12-11T13:43:55.317Z,0.20
2022-12-11T13:46:27.716Z,0.20
2022-12-11T13:49:00.771Z,0.20
2022-12-11T13:51:29.437Z,0.30
2022-12-11T13:54:07.574Z,0.30
2022-12-11T13:56:34.456Z,0.30
2022-12-11T13:59:01.472Z,0.20
2022-12-11T14:01:31.430Z,0.20
2022-12-11T14:04:02.249Z,0.30
2022-12-11T14:06:30.420Z,0.20
2022-12-11T14:08:59.351Z,0.20
2022-12-11T14:11:31.235Z,0.20
2022-12-11T14:13:59.580Z,0.10
2022-12-11T14:16:27.443Z,0.10
2022-12-11T14:18:56.918Z,0.10
2022-12-11T14:21:24.766Z,0.10
2022-12-11T14:23:55.686Z,0.00
2022-12-11T14:26:23.967Z,0.00
2022-12-11T14:28:51.241Z,0.00
2022-12-11T14:31:50.554Z,0.00
2022-12-11T14:34:37.621Z,0.00
2022-12-11T14:37:06.404Z,-0.10
2022-12-11T14:39:36.213Z,-0.10
2022-12-11T14:42:04.683Z,-0.10
2022-12-11T14:44:34.759Z,-0.10
2022-12-11T14:47:10.328Z,-0.10
2022-12-11T14:49:41.149Z,-0.10
2022-12-11T14:52:14.042Z,-0.20
2022-12-11T14:54:42.592Z,-0.20
2022-12-11T14:57:17.603Z,-0.20
2022-12-11T14:59:45.817Z,-0.10
2022-12-11T15:02:33.007Z,-0.10
2022-12-11T15:05:02.136Z,-0.20
2022-12-11T15:07:28.968Z,-0.20
2022-12-11T15:09:55.771Z,-0.20
2022-12-11T15:12:22.514Z,-0.20
2022-12-11T15:14:52.035Z,-0.10
2022-12-11T15:17:19.401Z,-0.20
2022-12-11T15:19:51.182Z,-0.20
2022-12-11T15:22:18.875Z,-0.20
2022-12-11T15:24:48.509Z,-0.20
2022-12-11T15:27:32.692Z,-0.20
2022-12-11T15:29:59.723Z,-0.20
2022-12-11T15:32:26.482Z,-0.20
2022-12-11T15:34:54.534Z,-0.20
2022-12-11T15:37:21.323Z,-0.20
2022-12-11T15:39:49.158Z,-0.20
2022-12-11T15:42:18.416Z,-0.20
2022-12-11T15:44:45.144Z,-0.10
2022-12-11T15:47:13.255Z,-0.20
2022-12-11T15:49:40.080Z,-0.20
2022-12-11T15:52:06.824Z,-0.20
2022-12-11T15:54:33.509Z,-0.20
2022-12-11T15:57:01.480Z,-0.20
2022-12-11T15:59:28.270Z,-0.20
2022-12-11T16:01:55.129Z,-0.20
2022-12-11T16:04:21.877Z,-0.20
2022-12-11T16:06:48.671Z,-0.20
2022-12-11T16:09:15.469Z,-0.20
2022-12-11T16:11:42.434Z,-0.20
2022-12-11T16:14:09.196Z,-0.20
2022-12-11T16:16:35.961Z,-0.20
2022-12-11T16:19:02.685Z,-0.20
2022-12-11T16:21:29.575Z,-0.20
2022-12-11T16:23:56.325Z,-0.20
2022-12-11T16:26:23.105Z,-0.20
2022-12-11T16:28:49.870Z,-0.20
2022-12-11T16:31:17.145Z,-0.30
2022-12-11T16:33:43.997Z,-0.20
2022-12-11T16:36:14.781Z,-0.30
2022-12-11T16:38:47.298Z,-0.30
2022-12-11T16:41:18.352Z,-0.30
2022-12-11T16:43:45.102Z,-0.30
2022-12-11T16:46:11.893Z,-0.30
2022-12-11T16:48:38.661Z,-0.30
2022-12-11T16:51:05.693Z,-0.30
2022-12-11T16:53:32.442Z,-0.30
2022-12-11T16:55:59.157Z,-0.30
2022-12-11T16:58:25.933Z,-0.30
2022-12-11T17:00:52.663Z,-0.30
2022-12-11T17:03:20.090Z,-0.30
2022-12-11T17:05:46.892Z,-0.40
2022-12-11T17:08:13.732Z,-0.40
2022-12-11T17:10:41.195Z,-0.40
2022-12-11T17:13:07.978Z,-0.40
2022-12-11T17:15:34.856Z,-0.40
2022-12-11T17:18:01.642Z,-0.40
2022-12-11T17:20:28.451Z,-0.40
2022-12-11T17:22:55.406Z,-0.40
2022-12-11T17:25:22.554Z,-0.40
2022-12-11T17:27:49.560Z,-0.40
2022-12-11T17:30:16.390Z,-0.40
2022-12-11T17:32:47.181Z,-0.40
2022-12-11T17:35:14.216Z,-0.40
2022-12-11T17:37:41.134Z,-0.40
2022-12-11T17:40:08.144Z,-0.40
2022-12-11T17:42:34.930Z,-0.40
2022-12-11T17:45:02.138Z,-0.40
2022-12-11T17:47:28.861Z,-0.40
2022-12-11T17:49:55.685Z,-0.50
2022-12-11T17:52:22.428Z,-0.60
2022-12-11T17:54:49.346Z,-0.60
2022-12-11T17:57:16.185Z,-0.60
2022-12-11T17:59:42.982Z,-0.60
2022-12-11T18:02:10.537Z,-0.50
2022-12-11T18:04:38.174Z,-0.50
2022-12-11T18:07:05.331Z,-0.50
2022-12-11T18:09:32.208Z,-0.50
2022-12-11T18:11:58.988Z,-0.50
2022-12-11T18:14:25.771Z,-0.50
2022-12-11T18:16:54.130Z,-0.50
2022-12-11T18:19:22.800Z,-0.50
2022-12-11T18:21:49.694Z,-0.40
2022-12-11T18:24:16.619Z,-0.40
2022-12-11T18:26:43.409Z,-0.50
2022-12-11T18:29:10.181Z,-0.50
2022-12-11T18:31:42.140Z,-0.50
2022-12-11T18:34:10.072Z,-0.50
2022-12-11T18:36:36.861Z,-0.50
2022-12-11T18:39:03.763Z,-0.60
2022-12-11T18:41:30.492Z,-0.50
2022-12-11T18:43:59.095Z,-0.40
2022-12-11T18:46:26.080Z,-0.40
2022-12-11T18:48:53.376Z,-0.40
2022-12-11T18:51:24.652Z,-0.40
2022-12-11T18:53:51.773Z,-0.40
2022-12-11T18:56:18.830Z,-0.40
2022-12-11T18:58:45.865Z,-0.40
2022-12-11T19:01:18.379Z,-0.40
2022-12-11T19:03:45.597Z,-0.40
2022-12-11T19:06:16.810Z,-0.40
2022-12-11T19:08:43.649Z,-0.40
2022-12-11T19:11:13.872Z,-0.40
2022-12-11T19:13:40.605Z,-0.40
2022-12-11T19:16:07.460Z,-0.40
2022-12-11T19:18:34.283Z,-0.50
2022-12-11T19:21:08.509Z,-0.50
2022-12-11T19:23:36.348Z,-0.50
2022-12-11T19:26:03.141Z,-0.50
2022-12-11T19:28:29.883Z,-0.60
2022-12-11T19:30:56.720Z,-0.50
2022-12-11T19:33:23.543Z,-0.60
2022-12-11T19:35:59.769Z,-0.60
2022-12-11T19:38:26.705Z,-0.60
2022-12-11T19:40:54.145Z,-0.60
2022-12-11T19:43:20.991Z,-0.60
2022-12-11T19:45:48.239Z,-0.60
2022-12-11T19:48:14.997Z,-0.60
2022-12-11T19:50:41.802Z,-0.60
2022-12-11T19:53:08.542Z,-0.60
2022-12-11T19:55:35.413Z,-0.60
2022-12-11T19:58:02.317Z,-0.70
2022-12-11T20:00:29.179Z,-0.70
2022-12-11T20:02:55.971Z,-0.80
2022-12-11T20:05:23.161Z,-0.80
2022-12-11T20:07:50.048Z,-0.80
2022-12-11T20:10:16.940Z,-0.80
2022-12-11T20:12:43.691Z,-0.80
2022-12-11T20:15:11.493Z,-0.70
2022-12-11T20:17:43.267Z,-0.70
2022-12-11T20:20:10.584Z,-0.70
2022-12-11T20:22:37.353Z,-0.80
2022-12-11T20:25:04.269Z,-0.90
2022-12-11T20:27:31.005Z,-0.90
2022-12-11T20:29:57.813Z,-0.90
2022-12-11T20:32:24.534Z,-1.00
2022-12-11T20:34:54.929Z,-1.00
2022-12-11T20:37:21.830Z,-1.00
2022-12-11T20:39:48.565Z,-1.10
2022-12-11T20:42:15.477Z,-1.20
2022-12-11T20:44:48.650Z,-1.20
2022-12-11T20:47:16.164Z,-1.20
2022-12-11T20:49:43.665Z,-1.20
2022-12-11T20:52:10.467Z,-1.30
2022-12-11T20:54:37.292Z,-1.30
2022-12-11T20:57:04.284Z,-1.30
2022-12-11T20:59:31.036Z,-1.40
2022-12-11T21:01:58.043Z,-1.40
2022-12-11T21:04:25.103Z,-1.50
2022-12-11T21:06:55.468Z,-1.50
2022-12-11T21:09:23.596Z,-1.50
2022-12-11T21:11:50.337Z,-1.50
2022-12-11T21:14:17.954Z,-1.60
2022-12-11T21:16:45.625Z,-1.60
2022-12-11T21:19:16.681Z,-1.70
2022-12-11T21:21:45.250Z,-1.70
2022-12-11T21:24:16.849Z,-1.80
2022-12-11T21:26:43.777Z,-1.80
2022-12-11T21:29:10.566Z,-1.90
2022-12-11T21:31:37.547Z,-1.90
2022-12-11T21:34:04.809Z,-2.00
2022-12-11T21:36:31.571Z,-2.00
2022-12-11T21:38:58.946Z,-2.10
2022-12-11T21:41:26.091Z,-2.20
2022-12-11T21:46:41.061Z,-2.20
2022-12-11T21:49:10.575Z,-2.20
2022-12-11T21:51:42.559Z,-2.20
2022-12-11T21:54:14.135Z,-2.20
2022-12-11T21:56:41.351Z,-2.20
2022-12-11T21:59:08.283Z,-2.20
2022-12-11T22:01:40.963Z,-2.20
2022-12-11T22:04:08.656Z,-2.20
2022-12-11T22:06:35.615Z,-2.20
2022-12-11T22:09:02.580Z,-2.20
2022-12-11T22:11:30.742Z,-2.20
2022-12-11T22:13:57.602Z,-2.10
2022-12-11T22:16:24.597Z,-2.10
2022-12-11T22:18:52.606Z,-2.10
2022-12-11T22:21:19.692Z,-2.20
2022-12-11T22:23:46.704Z,-2.10
2022-12-11T22:26:18.755Z,-2.10
2022-12-11T22:28:45.589Z,-2.10
2022-12-11T22:31:13.726Z,-2.00
2022-12-11T22:33:40.665Z,-2.10
2022-12-11T22:36:07.694Z,-2.00
2022-12-11T22:38:34.780Z,-2.00
2022-12-11T22:41:03.122Z,-2.00
2022-12-11T22:43:30.067Z,-2.00
2022-12-11T22:45:56.944Z,-1.90
2022-12-11T22:48:27.295Z,-2.00
2022-12-11T22:50:54.786Z,-1.90
2022-12-11T22:53:21.709Z,-2.00
2022-12-11T22:55:48.445Z,-2.10
2022-12-11T22:58:21.400Z,-2.00
2022-12-11T23:00:48.642Z,-2.10
2022-12-11T23:03:16.613Z,-2.20
2022-12-11T23:05:43.475Z,-2.10
2022-12-11T23:08:10.368Z,-2.20
2022-12-11T23:10:39.225Z,-2.20
2022-12-11T23:13:06.154Z,-2.10
2022-12-11T23:15:32.911Z,-2.20
2022-12-11T23:18:00.175Z,-2.20
2022-12-11T23:20:27.416Z,-2.10
2022-12-11T23:22:54.171Z,-2.10
2022-12-11T23:25:20.972Z,-2.20
2022-12-11T23:27:48.026Z,-2.10
2022-12-11T23:30:15.095Z,-2.10
2022-12-11T23:32:41.832Z,-2.00
2022-12-11T23:35:08.780Z,-2.10
2022-12-11T23:37:35.594Z,-2.10
2022-12-11T23:40:04.699Z,-2.10
2022-12-11T23:42:31.471Z,-2.20
2022-12-11T23:44:58.214Z,-2.20
2022-12-11T23:47:25.013Z,-2.30
2022-12-11T23:49:51.792Z,-2.30
2022-12-11T23:52:19.317Z,-2.40
2022-12-11T23:54:46.445Z,-2.50
2022-12-11T23:57:13.212Z,-2.60
2022-12-11T23:59:40.021Z,-2.80
